< Typhoon 200224 2002 Season Typhoon 200226 >
Typhoon 200225 (HAISHEN)
General InformationTrack Information on Google MapsDetailed Wind InformationList of All Images || Disaster Info.ResourceGoogle EarthGE AnimationAtom FeedGeoJSON
Detalied Best Track (Time Zone = UTC)
Year Month Day Hour Lat. Long. Pressure (hPa) Wind (kt) Class Image Chart
2002 11 20 00 9.0 147.0 1002 0 2 Image Chart
2002 11 20 06 10.7 145.9 1000 0 2 Image Chart
2002 11 20 12 11.5 144.0 1000 0 2 Image Chart
2002 11 20 18 12.3 142.5 996 35 3 Image Chart
2002 11 21 00 12.6 140.9 992 40 3 Image Chart
2002 11 21 06 12.6 140.1 990 45 3 Image Chart
2002 11 21 12 12.5 138.8 990 45 3 Image Chart
2002 11 21 18 12.9 137.5 985 50 4 Image Chart
2002 11 22 00 13.6 136.7 985 50 4 Image Chart
2002 11 22 06 15.0 135.8 985 50 4 Image Chart
2002 11 22 12 15.7 135.3 980 55 4 Image Chart
2002 11 22 18 16.3 135.2 980 55 4 Image Chart
2002 11 23 00 17.7 135.2 975 65 5 Image Chart
2002 11 23 06 18.8 135.3 960 75 5 Image Chart
2002 11 23 12 19.7 135.6 955 85 5 Image Chart
2002 11 23 18 21.1 136.5 955 85 5 Image Chart
2002 11 24 00 23.0 137.6 960 80 5 Image Chart
2002 11 24 06 25.6 139.6 970 70 5 Image Chart
2002 11 24 12 26.9 141.0 970 70 5 Image Chart
2002 11 24 15 27.6 142.0 970 65 5 Image Chart
2002 11 24 18 28.2 143.4 975 60 4 Image Chart
2002 11 25 00 30.0 145.5 980 0 6 Image Chart
2002 11 25 06 31.5 148.5 980 0 6 Image Chart
2002 11 25 12 33.0 151.2 980 0 6 Image Chart
2002 11 25 18 33.8 153.7 984 0 6 Image Chart
2002 11 26 00 34.7 157.9 984 0 6 Image Chart
2002 11 26 06 34.7 161.6 984 0 6 Image Chart
2002 11 26 12 34.7 165.9 988 0 6 Image Chart
Japan Meteorological Agency Best Track Data | Correction Date : 2006-01-18
< Typhoon 200224 2002 Season Typhoon 200226 >

Help